LTBALTCA

Guest
Details From LTBA - Istanbul Ataturk
To LTCA - Elazig
Flight Number -
Tags Generated
Created
Modified
Stats Distance 503 nm / 932 km
Max Altitude 0 ft / 0 m
Waypoints 3
Social Downloads 0
Likes 0
Share VATSIM

Download

Looking for another format? Having issues loading an existing format? Contact us
Advertisement - Login to hide

Notes

Generated

Route

LTBA BULUT LTCA

ID Type Via Altitude Latitude Longitude Leg Dist Tot Dist Heading (true) Name
O LTBA APT - 0 ft / 0 m 40.96559˚ 28.80986˚ - 0 nm - -
BULUT FIX - 0 ft / 0 m 38.75972˚ 38.90056˚ 483 nm 483 nm 103° / 109° -
O LTCA APT - 0 ft / 0 m 38.61229˚ 39.28436˚ 20 nm 503 nm 116° / 116° -

Altitude Profile

Advertisement - Login to hide

Weather


0- 5 10 15 20 25 30 35+ Temperature / ° C

Clouds and Precipitation
Forecast for 2017-12-11 12:00 UTC. Updated 15 minutes ago

Ground ~20,000 ft ~40,000 ft Winds

LTBA

Details ICAO LTBA (IST)
Name Istanbul Ataturk
Region Turkey
Timezone Europe/Istanbul (UTC+3.0)
Stats Elevation 163 ft / 50 m (AMSL)
Location 40.979136° 28.812832°
Runways 3
Magnetic Variation 5.428° E

METAR

LTBA 110920Z 21012KT CAVOK 13/09 Q1023 NOSIG

Decode

TAF

Not found

Departure Runways

ID Width Length Bearing (true) Bearing (mag) Surface Threshold Offset Overrun Length
05 197 ft / 60 m 8,514 ft / 2,595 m 58.64° 53.21° Concrete 400 ft / 122 m 197 ft / 60 m
17L 148 ft / 45 m 9,820 ft / 2,993 m 178.48° 173.05° Concrete 0 ft / 0 m 197 ft / 60 m
17R 148 ft / 45 m 9,858 ft / 3,005 m 178.49° 173.06° Concrete 0 ft / 0 m 0 ft / 0 m
23 197 ft / 60 m 8,514 ft / 2,595 m 238.65° 233.22° Concrete 0 ft / 0 m 197 ft / 60 m
35L 148 ft / 45 m 9,858 ft / 3,005 m 358.49° 353.06° Concrete 0 ft / 0 m 200 ft / 61 m
35R 148 ft / 45 m 9,820 ft / 2,993 m 358.48° 353.05° Concrete 0 ft / 0 m 197 ft / 60 m

LTCA

Details ICAO LTCA (EZS)
Name ELAZIG
Region Turkey
Timezone Europe/Istanbul (UTC+3.0)
Stats Elevation 2,927 ft / 892 m (AMSL)
Location 38.606925° 39.291415°
Runways 1
Magnetic Variation 5.769° E

METAR

LTCA 110850Z VRB03KT 9999 FEW035 SCT200 06/M00 Q1028 NOSIG

Decode

TAF

Not found

Destination Runways

ID Width Length Bearing (true) Bearing (mag) Surface Threshold Offset Overrun Length
13 105 ft / 32 m 5,616 ft / 1,712 m 134.22° 128.45° Asphalt 0 ft / 0 m 206 ft / 63 m
31 105 ft / 32 m 5,616 ft / 1,712 m 314.23° 308.46° Asphalt 0 ft / 0 m 206 ft / 63 m

Popular Alternatives